Regionale Übersicht

METAR et TAF

Mardi 16 août 2022 à 06h05

Visibilités horizontales observées à différents aéroports. Les observations (METAR) et prévisions aéronautiques (TAF) complètes sont disponibles en cliquant sur l’icône correspondante.

  • Luxemburg (ELLX)

    Taf: TAF ELLX 152300Z NIL=

    Metar: METAR ELLX 160350Z 18002KT 4000 BR NSC 15/14 Q1009 NOSIG=

  • Spangdahlem (ETAD)

    Taf: TAF ETAD 160400Z 1604/1710 23005KT 6000 BR SCT040 QNH2978INS TEMPO 1604/1609 4400 BR SCT040 BKN100 BECMG 1609/1610 20008KT 9999 NSW SCT030 QNH2981INS BECMG 1704/1705 VRB06KT 9999 SCT030 QNH2981INS TX28/1615Z TN16/1704Z=

    Metar: METAR ETAD 160356Z AUTO 00000KT 6000 BR BKN100 15/15 A2978 RMK AO2 SLP065 T01530151 $=

  • Metz/Nancy (LFJL)

    Taf: TAF LFJL 152304Z 1600/1624 16006KT 9999 FEW040 PROB30 TEMPO 1602/1605 4000 BR PROB40 1623/1624 22015G25KT SHRA SCT070CB=

    Metar: METAR LFJL 160330Z AUTO 17007KT 6000 BKN027 17/16 Q1009 TEMPO 4000 BR=

  • Saarbrücken/Intl (EDDR)

    Taf: TAF EDDR 152300Z 1600/1624 20005KT CAVOK BECMG 1617/1619 VRB03KT=

    Metar: METAR EDDR 160350Z AUTO 00000KT 9999 FEW022 15/14 Q1009 NOSIG=

  • Hahn (EDFH)

    Taf: TAF EDFH 152300Z 1600/1624 24006KT 9999 SCT040 BECMG 1618/1620 14005KT=

    Metar: METAR COR EDFH 160350Z 21005KT CAVOK 14/14 Q1009=

  • Ramstein (ETAR)

    Taf: TAF ETAR 160200Z 1602/1708 VRB06KT 9999 FEW030 SCT090 QNH2980INS BECMG 1607/1608 23009KT 9999 SCT040 QNH2982INS BECMG 1617/1618 09006KT 9999 FEW040 QNH2983INS BECMG 1703/1704 10006KT 9000 -SHRA BKN050 QNH2983INS TX29/1614Z TN13/1604Z=

    Metar: METAR ETAR 160356Z AUTO 00000KT 9999 CLR 13/13 A2979 RMK AO2 SLP084 T01310131 $=

  • Nancy/Ochey (LFSO)

    Taf: TAF LFSO 160200Z NIL=

    Metar: METAR LFSO 160330Z AUTO 18005KT CAVOK 16/15 Q1010=

  • Liège Bierset (EBLG)

    Taf: TAF EBLG 152310Z 1600/1706 20006KT CAVOK TEMPO 1701/1706 3500 SHRA TSRA PROB40 TEMPO 1701/1706 VRB15G30KT 2500 +SHRA +TSRA BKN007 BKN040CB=

    Metar: METAR EBLG 160350Z 18007KT 150V210 CAVOK 17/14 Q1008 NOSIG=

  • Saint-Dizier (LFSI)

    Taf: TAF LFSI 160200Z 1603/1703 20005KT CAVOK PROB30 TEMPO 1603/1606 3000 BR TEMPO 1613/1620 4000 SHRA BKN030TCU TEMPO 1620/1701 18015G30KT TSRA SCT030 BKN050CB=

    Metar: METAR LFSI 160330Z AUTO 12004KT 6000 NSC 16/15 Q1008=

  • Maastricht/Zuid Limburg (EHBK)

    Taf: TAF EHBK 152304Z 1600/1706 21007KT CAVOK=

    Metar: METAR EHBK 160355Z AUTO 21009KT 180V240 9999 NCD 17/15 Q1007 NOSIG=

  • Köln/Köln-Bonn (EDDK)

    Taf: TAF EDDK 152300Z 1600/1706 13005KT CAVOK TEMPO 1600/1606 VRB03KT BECMG 1608/1611 20005KT PROB30 TEMPO 1614/1616 26007KT SHRA SCT055CB BECMG 1617/1620 10004KT=

    Metar: METAR EDDK 160350Z AUTO 10003KT 040V170 CAVOK 17/14 Q1007 NOSIG=

  • Charleroi (EBCI)

    Taf: TAF EBCI 152310Z 1600/1706 22006KT CAVOK TEMPO 1622/1706 3500 SHRA TSRA PROB40 TEMPO 1622/1706 VRB15G30KT 2500 +SHRA +TSRA BKN007 BKN040CB=

    Metar: METAR EBCI 160350Z 20006KT CAVOK 17/14 Q1008 NOSIG=

  • Wiesbaden (ETOU)

    Taf: TAF ETOU 160300Z 1603/1709 20006KT 9000 BR SCT010 BKN020 QNH2979INS BECMG 1607/1608 VRB03KT 9999 NSW SCT020 BKN030 QNH2981INS BECMG 1611/1612 VRB06KT 9999 FEW030 SCT040 QNH2980INS BECMG 1700/1701 VRB03KT 9999 SKC QNH2981INS TX27/1614Z TN16/1703Z=

    Metar: METAR ETOU 160356Z AUTO 00000KT 9999 CLR 16/15 A2980 RMK AO2 SLP089 T01550147 $=

  • Karlsruhe/Baden-Baden (EDSB)

    Taf: TAF EDSB 152300Z 1600/1624 22004KT CAVOK=

    Metar: METAR EDSB 160350Z 24004KT CAVOK 19/16 Q1009=

  • Chalons/Vatry (LFOK)

    Taf: TAF LFOK 152300Z 1600/1624 20004KT CAVOK TEMPO 1615/1620 3000 SHRA BKN040TCU PROB40 TEMPO 1620/1623 VRB20G40KT 2000 TSRA BKN040CB=

    Metar: METAR LFOK 160330Z AUTO 19004KT CAVOK 15/14 Q1008 NOSIG=

  • Frankfurt/Main (EDDF)

    Taf: TAF EDDF 152300Z 1600/1706 19005KT CAVOK BECMG 1619/1621 04004KT=

    Metar: METAR EDDF 160350Z VRB02KT CAVOK 15/14 Q1009 NOSIG=

  • Brüssel (EBBR)

    Taf: TAF EBBR 152310Z 1600/1706 22006KT CAVOK PROB30 TEMPO 1613/1618 4000 SHRA TSRA TEMPO 1622/1706 3500 SHRA TSRA PROB40 TEMPO 1622/1706 VRB15G30KT 2500 +SHRA +TSRA BKN007 BKN040CB=

    Metar: METAR EBBR 160350Z 20006KT CAVOK 17/14 Q1007 NOSIG=

  • Düsseldorf (EDDL)

    Taf: TAF EDDL 152300Z 1600/1706 VRB03KT CAVOK BECMG 1600/1603 16005KT TEMPO 1603/1607 15010KT BECMG 1608/1611 22007KT BECMG 1618/1621 06004KT=

    Metar: METAR EDDL 160350Z AUTO 15008KT CAVOK 19/15 Q1007 NOSIG=

  • Luxeuil (LFSX)

    Taf: TAF LFSX 160200Z NIL=

    Metar: METAR LFSX 160330Z AUTO 10004KT CAVOK 14/13 Q1010=

  • Eindhoven (EHEH)

    Taf: TAF EHEH 152322Z 1600/1706 21004KT CAVOK TEMPO 1600/1603 VRB02KT 4000 BR MIFG BECMG 1615/1617 VRB02KT PROB40 TEMPO 1617/1706 VRB10G20KT 4000 SHRA TSRA SCT030 SCT040CB BECMG 1621/1624 04004KT=

    Metar: METAR EHEH 160355Z AUTO 20004KT 9999 SCT350 15/15 Q1006 BLU=

  • Niederrhein (EDLV)

    Taf: TAF EDLV 160320Z 1604/1624 22006KT CAVOK BECMG 1618/1621 VRB03KT=

    Metar: METAR EDLV 160350Z VRB02KT CAVOK 17/15 Q1006=

  • Dortmund/Wickede (EDLW)

    Taf: TAF EDLW 160320Z 1604/1624 18008KT CAVOK BECMG 1608/1611 24006KT BECMG 1617/1619 15005KT TEMPO 1619/1624 VRB03KT=

    Metar: METAR EDLW 160350Z 19008KT CAVOK 18/14 Q1007=

  • Stuttgart/Echterdingen (EDDS)

    Taf: TAF EDDS 152300Z 1600/1624 VRB03KT CAVOK=

    Metar: METAR EDDS 160350Z AUTO VRB01KT CAVOK 14/13 Q1010=

  • Basel-Mühlhausen (LFSB)

    Taf: TAF LFSB 152304Z 1600/1624 15004KT 9999 FEW040 SCT090 BECMG 1611/1613 36005KT PROB40 1623/1624 26014KT FEW080TCU=

    Metar: METAR LFSB 160330Z AUTO 18004KT 9999 SCT049 17/16 Q1010 NOSIG=

  • Lille (LFQQ)

    Taf: TAF LFQQ 152300Z 1600/1706 23006KT CAVOK TEMPO 1614/1706 3000 SHRA BKN040TCU PROB30 TEMPO 1614/1706 TSRA SCT040CB=

    Metar: METAR LFQQ 160330Z AUTO 21004KT CAVOK 18/16 Q1007 NOSIG=

  • Paris/Charles de Gaulle (LFPG)

    Taf: TAF LFPG 152300Z 1600/1706 22004KT CAVOK TX27/1615Z TN18/1607Z TEMPO 1612/1624 SCT040CB PROB30 TEMPO 1614/1624 15010G20KT 4000 -TSRA SCT040CB PROB40 TEMPO 1618/1621 15010G25KT 2500 TSRA BKN040CB=

    Metar: METAR LFPG 160330Z 09005KT 060V120 CAVOK 19/15 Q1007 NOSIG=

  • Paderborn/Lippstadt (EDLP)

    Taf: TAF EDLP 152300Z 1600/1624 18007KT CAVOK BECMG 1608/1611 25005KT PROB30 TEMPO 1614/1616 SHRA SCT055CB BECMG 1618/1621 VRB03KT=

    Metar: METAR EDLP 160350Z 17007KT CAVOK 18/13 Q1008=

  • Paris/Le Bourget (LFPB)

    Taf: TAF LFPB 152300Z 1600/1624 22004KT CAVOK TEMPO 1612/1624 SCT040CB PROB30 TEMPO 1614/1624 15010G20KT 4000 -TSRA SCT040CB PROB40 TEMPO 1618/1621 15010G25KT 2500 TSRA BKN040CB=

    Metar: METAR LFPB 160330Z AUTO 05004KT CAVOK 19/15 Q1007 NOSIG=

  • Rotterdam (EHRD)

    Taf: TAF EHRD 152304Z 1600/1706 21006KT CAVOK PROB30 TEMPO 1602/1606 2000 BCFG BECMG 1617/1620 04004KT PROB30 TEMPO 1622/1706 4000 SHRA TSRA SCT050CB=

    Metar: METAR EHRD 160355Z AUTO 21004KT 9000 NSC 18/16 Q1005 NOSIG=

  • Zürich/Kloten (LSZH)

    Taf: TAF LSZH 160225Z 1603/1709 VRB02KT CAVOK TX29/1615Z TN13/1605Z TN15/1705Z PROB30 TEMPO 1700/1703 21010KT 9999 SHRA SCT080TCU BECMG 1707/1709 05006KT=

    Metar: METAR LSZH 160350Z 32002KT CAVOK 12/11 Q1012 NOSIG=

  • Oostende/Intl (EBOS)

    Taf: TAF EBOS 152310Z 1600/1706 20007KT CAVOK PROB40 TEMPO 1611/1618 4000 SHRA TSRA TEMPO 1622/1706 3500 SHRA TSRA PROB40 TEMPO 1622/1706 VRB15G30KT 2500 +SHRA +TSRA BKN007 BKN040CB=

    Metar: METAR EBOS 160350Z 20004KT 6000 NSC 15/14 Q1006 NOSIG=

  • Paris/Orly (LFPO)

    Taf: TAF LFPO 152300Z 1600/1706 20005KT CAVOK TEMPO 1615/1624 4000 SHRA SCT050CB PROB40 TEMPO 1618/1621 VRB15G30KT 2000 TSRA BKN045CB PROB30 TEMPO 1704/1706 3000 BR BKN003=

    Metar: METAR LFPO 160330Z AUTO 19005KT CAVOK 18/16 Q1007 NOSIG=

  • Beauvais (LFOB)

    Taf: TAF LFOB 152300Z 1600/1624 20005KT CAVOK TEMPO 1615/1624 3000 SHRA BKN040TCU PROB30 TEMPO 1615/1624 TSRA SCT040CB=

    Metar: METAR LFOB 160330Z AUTO VRB01KT CAVOK 16/13 Q1007 NOSIG=

  • Münster/Intl (EDDG)

    Taf: TAF EDDG 152300Z 1600/1624 VRB03KT CAVOK BECMG 1606/1609 20006KT BECMG 1614/1617 26006KT BECMG 1618/1621 VRB03KT=

    Metar: METAR EDDG 160350Z AUTO VRB02KT 9999 VCSH FEW///TCU 19/16 Q1006 NOSIG=

  • Illesheim (ETIK)

    Taf: nil

    Metar: METAR ETIK 160356Z AUTO 00000KT 5000 BR CLR 13/11 A2983 RMK AO2 SLP092 T01250109 $=

  • Duebendorf (LSMD)

    Taf: TAF LSMD 151625Z 1517/1623 26007KT 9999 FEW050 SCT070 TEMPO 1517/1519 FEW050CB PROB40 TEMPO 1517/1519 SHRA SCT050TCU BECMG 1519/1522 VRB02KT CAVOK PROB30 1603/1607 4000 MIFG NSC PROB40 1612/1618 10005KT=

    Metar: METAR LSMD 160350Z AUTO 00000KT 9999NDV NCD 13/12 Q1011 RMK=

  • Villacoublay (LFPV)

    Taf: TAF LFPV 160200Z 1603/1703 25004KT CAVOK TX24/1614Z TN17/1603Z PROB40 TEMPO 1615/1621 24015G25KT 4000 SHRA SCT030CB PROB40 TEMPO 1616/1618 2000 TSRA SCT035CB=

    Metar: METAR LFPV 160330Z AUTO 23002KT CAVOK 18/16 Q1008 NOSIG=

  • Payerne (LSMP)

    Taf: TAF LSMP 151625Z 1517/1623 25008KT 9999 SCT080=

    Metar: METAR LSMP 160350Z AUTO VRB01KT 9999NDV NCD 00/M02 Q1011 RMK=

  • Amsterdam/Schipol (EHAM)

    Taf: TAF EHAM 152304Z 1600/1706 21006KT CAVOK BECMG 1611/1614 28009KT BECMG 1617/1620 04004KT PROB30 TEMPO 1700/1706 4000 SHRA TSRA SCT050CB=

    Metar: METAR EHAM 160355Z 19006KT 7000 NSC 18/17 Q1005 NOSIG=

  • Emmen (LSME)

    Taf: TAF LSME 151625Z 1517/1623 VRB02KT 9999 FEW009 BKN050 TEMPO 1517/1524 26012KT SHRA SCT055TCU PROB40 TEMPO 1517/1522 26015G30KT 4000 TSRA SCT050CB BECMG 1601/1604 CAVOK PROB40 1603/1607 4000 MIFG NSC PROB30 1603/1607 1500 BCFG NSC TEMPO 1610/1616 9999 FEW050 TEMPO 1616/1623 22008KT SHRA SCT060TCU=

    Metar: METAR LSME 160350Z AUTO 00000KT 9999NDV BR NCD 13/13 Q1011 RMK=

  • Friedrichshafen (EDNY)

    Taf: TAF EDNY 152300Z 1600/1624 VRB03KT CAVOK=

    Metar: METAR EDNY 160350Z AUTO VRB01KT 9999 // NCD 12/12 Q1011=

  • Alpnach (LSMA)

    Taf: TAF LSMA 151625Z 1517/1623 VRB03KT 9999 FEW030 BKN050 TEMPO 1517/1524 22012KT SHRA SCT055TCU PROB40 TEMPO 1517/1520 22015G30KT 4000 TSRA SCT050CB BECMG 1601/1604 CAVOK PROB40 1603/1607 4000 MIFG NSC PROB30 1603/1607 1500 BCFG NSC PROB40 TEMPO 1610/1616 04010KT 9999 FEW050 TEMPO 1616/1623 22008KT SHRA SCT060TCU=

    Metar: METAR LSMA 160350Z AUTO 00000KT 9999NDV NCD 13/13 Q1012 RMK=

  • Meiringen (LSMM)

    Taf: TAF AMD LSMM 151722Z 1517/1623 28003KT 9999 FEW030 BKN080 PROB30 TEMPO 1517/1519 26015G30KT 4000 TSRA SCT050CB TEMPO 1517/1519 05012KT BECMG 1600/1603 CAVOK PROB40 1603/1607 4000 MIFG NSC PROB30 1603/1607 1500 BCFG NSC PROB40 TEMPO 1610/1616 05010KT 9999 FEW050 BECMG 1615/1618 26010KT SHRA SCT060TCU=

    Metar: METAR LSMM 160350Z AUTO 00000KT 5000NDV R10/M0050N R28/0900VP2000U BCFG FEW002 11/11 Q1013 RMK=

  • Nürnberg (EDDN)

    Taf: TAF EDDN 152300Z 1600/1624 16004KT CAVOK BECMG 1608/1610 24006KT BECMG 1617/1619 36004KT=

    Metar: METAR EDDN 160350Z AUTO 10007KT CAVOK 14/13 Q1011=

  • Rouen (LFOP)

    Taf: TAF LFOP 152300Z NIL=

    Metar: METAR LFOP 160330Z AUTO 10003KT CAVOK 19/15 Q1007=

  • Evreux (LFOE)

    Taf: TAF LFOE 160200Z 1603/1703 16004KT CAVOK TEMPO 1612/1620 4000 -SHRA BKN060CB PROB40 TEMPO 1615/1619 16015G25KT 2000 TSRA=

    Metar: METAR LFOE 160330Z AUTO 16004KT 060V200 CAVOK 18/14 Q1007 NOSIG=

  • Erfurt/Bindersleben (EDDE)

    Taf: TAF EDDE 152300Z 1600/1624 25005KT CAVOK PROB30 TEMPO 1602/1606 4000 BR BECMG 1615/1618 VRB03KT=

    Metar: METAR EDDE 160350Z AUTO 21007KT CAVOK 15/12 Q1009 NOSIG=